ฉงชิ่ง, Chongqing

02:07 PM CST วัน ตุลาคม 31, 2014 (GMT +0800)
Jiangbei | Change Station
CLOSE
Current Station
Airport
Location: Chongqing,
Elevation: 1152 ft
Nearby Weather Stations

Elev 1152 ft 29.52 °N, 106.48 °E | Updated 1 hour ago

Scattered Clouds
มีเมฆคลุมเป็นบางส่วน
70 ฟาเรนไฮน์
Feels Like 70 ฟาเรนไฮน์
N
7
ลม ความผันแปร ลม from ทางทิศเหนือ

วันนี้
High -- | Low -- ฟาเรนไฮน์
--% Chance of Precip.
Yesterday
High -- | Low -- ฟาเรนไฮน์
Precip. -- นิ้ว
7:05 AM 6:07 PM
ไตรมาสแรก, 52% visible
ความดัน 30.01 นิ้ว
ทัศนวิสัย 6.2 ไมล์
เมฆ มีเมฆคลุมเป็นบางส่วน 3300 ft
อุณหภูมิที่อากาศอาจจับตัวเป็นหยาดน้ำค้าง 57 ฟาเรนไฮน์
ความชื้น 64%
Rainfall 0.00 นิ้ว
Snow Depth Not available.
UV 7 out of 12
Pollen Not available.
Air Quality Not available.
Flu Activity Not available.
METAR ZUCK 310500Z 01003MPS 9999 SCT033 21/14 Q1016 NOSIG

More Conditions Fewer Conditions

ความดัน 30.01 นิ้ว
ทัศนวิสัย 6.2 ไมล์
เมฆ มีเมฆคลุมเป็นบางส่วน 3300 ft
อุณหภูมิที่อากาศอาจจับตัวเป็นหยาดน้ำค้าง 57 ฟาเรนไฮน์
ความชื้น 64%
Rainfall 0.00 นิ้ว
Snow Depth Not available.
UV 7 out of 12
Pollen Not available.
Air Quality Not available.
Flu Activity Not available.
METAR ZUCK 310500Z 01003MPS 9999 SCT033 21/14 Q1016 NOSIG

More Conditions Fewer Conditions

10-Day Weather Forecast

Almanac

ดาราศาสตร์

Oct. 31, 2014 Rise Set
Actual Time
Civil Twilight
Nautical Twilight
Astronomical Twilight
Moon
Length Of Visible Light
ความยาวของวัน
Tomorrow will be .
, % of the Moon is Illuminated

Today's Extremes

Country Highs Country Lows

Community

WunderPhotos

Upload Photos

1,766,571 photos uploaded!

WunderBlogs® & News

Nearby

Air Quality

  Air Quality AQ Index Pollutant
Not available.

Snow Depth

Station Depth Elevation

Earthquake Activity

City Distance Mag. Time & Date
Minimum magnitude displayed is 2.5.

Coastal Water Temperatures

สถานที่ อุณหภูมิ

Nearby Weather Stations